Nemo, South Dakota
Current Conditions -  °F | °C
As of 9:58 PM on Wednesday 22 Oct 2014 (Local Time) from KRCA Reporting Station
Clear Clear  
Wind Chill:   Ceiling: Unl
Heat Index:   Visibility: 10mi
Dew Point:   Wind: 6mph
Humidity: 70%   Direction: 250°WSW
Pressure: 30.02"   Gusts: NA
Location:  44.19°N, 103.51°W
Report Text: KRCA 230358Z AUTO 25005KT 10SM CLR 07/01 A3002 RMK AO2 SLP171 T00650014 $
Loading
Personal Weather Stations






























Interactive Weather Map
Tropical Storm Tracking
New forecast layout! Learn more

10-Day Weather Forecast

Advertisements
Track Severe Weather on mobile